Time;durP1;ratioP1;P1;durP2;ratioP2;P2;SDS_P1;SDS_P2;PMS_P1;PMS_P2;Temp;Humidity;BMP_temperature;BMP_pressure;BME280_temperature;BME280_humidity;BME280_pressure;Samples;Min_cycle;Max_cycle;Signal;HPM_P1;HPM_P2
2024/01/30 00:00:12;;;;;;;1.90;1.90;;;17.40;68.60;;;;;;5015548;28;43341;-68
2024/01/30 00:02:40;;;;;;;2.00;2.00;;;17.40;68.50;;;;;;5014979;28;43383;-68
2024/01/30 00:05:08;;;;;;;1.70;1.70;;;17.40;68.50;;;;;;5014812;28;43879;-68
2024/01/30 00:07:37;;;;;;;1.80;1.80;;;17.40;68.60;;;;;;5009946;28;44006;-68
2024/01/30 00:10:07;;;;;;;1.80;1.80;;;17.40;68.70;;;;;;5012514;28;43388;-69
2024/01/30 00:12:35;;;;;;;1.80;1.80;;;17.40;68.70;;;;;;5013452;28;43539;-69
2024/01/30 00:15:04;;;;;;;1.60;1.60;;;17.30;68.70;;;;;;5016259;28;43925;-68
2024/01/30 00:17:32;;;;;;;1.80;1.80;;;17.30;69.40;;;;;;5013899;28;43931;-68
2024/01/30 00:20:00;;;;;;;1.70;1.70;;;17.40;68.80;;;;;;5011121;28;43484;-69
2024/01/30 00:22:30;;;;;;;1.80;1.80;;;17.30;68.70;;;;;;5012580;28;43416;-68
2024/01/30 00:24:58;;;;;;;1.90;1.90;;;17.30;68.80;;;;;;5016470;28;43900;-68
2024/01/30 00:27:28;;;;;;;2.10;2.10;;;17.30;68.80;;;;;;5010041;28;43322;-68
2024/01/30 00:29:56;;;;;;;1.90;1.90;;;17.30;68.90;;;;;;5011973;28;43446;-69
2024/01/30 00:32:24;;;;;;;1.90;1.90;;;17.30;68.90;;;;;;5012379;28;43987;-69
2024/01/30 00:34:52;;;;;;;1.80;1.80;;;17.40;68.80;;;;;;5014564;28;43904;-68
2024/01/30 00:37:20;;;;;;;1.93;1.93;;;17.50;68.70;;;;;;5009288;28;43471;-68
2024/01/30 00:39:48;;;;;;;1.73;1.73;;;17.50;68.40;;;;;;5015450;28;43428;-68
2024/01/30 00:42:16;;;;;;;1.70;1.70;;;17.50;68.50;;;;;;5016143;28;43410;-68
2024/01/30 00:44:46;;;;;;;1.90;1.90;;;17.50;68.50;;;;;;5015337;28;45648;-68
2024/01/30 00:47:14;;;;;;;1.70;1.70;;;17.40;68.60;;;;;;5011366;28;43486;-68
2024/01/30 00:49:42;;;;;;;1.70;1.70;;;17.40;68.50;;;;;;5011014;28;43379;-68
2024/01/30 00:52:10;;;;;;;2.27;2.27;;;17.40;68.50;;;;;;5015194;28;43432;-68
2024/01/30 00:54:38;;;;;;;1.80;1.80;;;17.40;68.60;;;;;;5007411;28;43898;-68
2024/01/30 00:57:06;;;;;;;2.07;2.00;;;17.40;68.60;;;;;;5008413;28;43371;-68
2024/01/30 00:59:34;;;;;;;1.90;1.90;;;17.40;68.80;;;;;;5006677;28;44061;-68
2024/01/30 01:02:04;;;;;;;1.60;1.60;;;17.40;68.80;;;;;;5023210;28;43422;-67
2024/01/30 01:04:32;;;;;;;1.83;1.83;;;17.40;69.00;;;;;;5035707;28;43809;-67
2024/01/30 01:07:00;;;;;;;1.90;1.90;;;17.40;68.80;;;;;;5035657;28;43387;-67
2024/01/30 01:09:28;;;;;;;2.00;2.00;;;17.50;68.50;;;;;;5026906;28;43484;-66
2024/01/30 01:11:56;;;;;;;1.67;1.67;;;17.50;68.40;;;;;;5036677;28;43423;-66
2024/01/30 01:14:25;;;;;;;1.60;1.60;;;17.50;68.40;;;;;;5032084;28;43604;-65
2024/01/30 01:16:53;;;;;;;2.00;2.00;;;17.50;68.50;;;;;;5031535;28;43697;-66
2024/01/30 01:19:22;;;;;;;1.70;1.70;;;17.40;69.30;;;;;;5036651;28;43479;-65
2024/01/30 01:21:50;;;;;;;2.00;2.00;;;17.40;68.50;;;;;;5032709;28;43402;-65
2024/01/30 01:24:19;;;;;;;1.57;1.57;;;17.40;68.60;;;;;;5033989;28;43624;-66
2024/01/30 01:26:47;;;;;;;1.87;1.87;;;17.40;68.60;;;;;;5033921;28;43346;-65
2024/01/30 01:29:15;;;;;;;1.50;1.50;;;17.40;68.70;;;;;;5033684;28;43461;-65
2024/01/30 01:31:44;;;;;;;1.97;1.97;;;17.40;68.80;;;;;;5036082;28;43365;-65
2024/01/30 01:34:12;;;;;;;1.70;1.70;;;17.30;68.80;;;;;;5033663;28;43781;-65
2024/01/30 01:36:41;;;;;;;1.90;1.90;;;17.40;68.90;;;;;;5030217;28;44999;-65
2024/01/30 01:39:10;;;;;;;1.80;1.80;;;17.30;68.70;;;;;;5033342;28;44535;-65
2024/01/30 01:41:38;;;;;;;1.70;1.70;;;17.30;68.70;;;;;;5032628;28;43400;-65
2024/01/30 01:44:06;;;;;;;1.90;1.90;;;17.40;68.90;;;;;;5034825;28;45979;-67
2024/01/30 01:46:34;;;;;;;2.00;2.00;;;17.30;68.80;;;;;;5025832;28;43639;-67
2024/01/30 01:49:03;;;;;;;2.00;2.00;;;17.30;68.90;;;;;;5031043;28;43341;-67
2024/01/30 01:51:32;;;;;;;1.90;1.90;;;17.30;69.00;;;;;;5035201;28;43393;-66
2024/01/30 01:54:03;;;;;;;1.80;1.80;;;17.40;69.00;;;;;;5034109;28;43865;-67
2024/01/30 01:56:31;;;;;;;1.70;1.70;;;17.50;68.70;;;;;;5034153;28;43988;-65
2024/01/30 01:59:01;;;;;;;1.70;1.70;;;17.50;68.30;;;;;;5033787;28;43460;-67
2024/01/30 02:01:29;;;;;;;1.70;1.70;;;17.50;68.30;;;;;;5032769;28;43499;-67
2024/01/30 02:03:57;;;;;;;1.93;1.93;;;17.50;69.10;;;;;;5033271;28;43852;-65
2024/01/30 02:06:25;;;;;;;1.80;1.80;;;17.50;68.70;;;;;;5040878;28;43399;-65
2024/01/30 02:08:53;;;;;;;1.73;1.73;;;17.50;68.50;;;;;;5035064;28;43444;-65
2024/01/30 02:11:23;;;;;;;1.87;1.87;;;17.40;68.50;;;;;;5027340;28;43471;-67
2024/01/30 02:13:51;;;;;;;1.50;1.50;;;17.40;68.50;;;;;;5017327;28;43614;-68
2024/01/30 02:16:19;;;;;;;1.77;1.77;;;17.40;68.60;;;;;;5012407;28;43401;-67
2024/01/30 02:18:47;;;;;;;1.70;1.70;;;17.40;68.70;;;;;;5015446;28;43453;-67
2024/01/30 02:21:17;;;;;;;1.70;1.70;;;17.40;68.80;;;;;;5014990;28;43412;-68
2024/01/30 02:23:45;;;;;;;1.60;1.60;;;17.40;68.80;;;;;;5014706;28;43865;-68
2024/01/30 02:26:13;;;;;;;1.80;1.80;;;17.40;68.80;;;;;;5019898;28;44946;-68
2024/01/30 02:28:41;;;;;;;1.90;1.90;;;17.40;68.80;;;;;;5012410;28;43407;-68
2024/01/30 02:31:09;;;;;;;1.70;1.70;;;17.30;68.80;;;;;;5012260;28;43497;-68
2024/01/30 02:33:37;;;;;;;1.70;1.70;;;17.30;68.90;;;;;;5015107;28;43802;-68
2024/01/30 02:36:06;;;;;;;1.70;1.70;;;17.30;68.90;;;;;;5016466;28;43395;-68
2024/01/30 02:38:35;;;;;;;1.60;1.60;;;17.30;69.00;;;;;;5019155;28;43884;-68
2024/01/30 02:41:03;;;;;;;1.70;1.70;;;17.40;68.90;;;;;;5007241;28;43409;-68
2024/01/30 02:43:31;;;;;;;1.80;1.80;;;17.50;68.60;;;;;;5014638;28;44073;-68
2024/01/30 02:46:00;;;;;;;1.90;1.90;;;17.50;68.30;;;;;;5009908;28;43725;-68
2024/01/30 02:48:28;;;;;;;1.60;1.60;;;17.50;68.40;;;;;;5008291;28;43380;-68
2024/01/30 02:50:57;;;;;;;1.70;1.70;;;17.50;68.50;;;;;;5010783;28;43367;-68
2024/01/30 02:53:25;;;;;;;1.67;1.67;;;17.40;68.60;;;;;;5005069;28;43828;-67
2024/01/30 02:55:55;;;;;;;1.73;1.73;;;17.40;68.50;;;;;;5021606;28;43793;-67
2024/01/30 02:58:23;;;;;;;1.50;1.50;;;17.40;68.50;;;;;;5006940;28;43395;-67
2024/01/30 03:00:51;;;;;;;1.60;1.60;;;17.40;68.60;;;;;;5007103;28;43383;-67
2024/01/30 03:03:19;;;;;;;1.70;1.70;;;17.40;68.70;;;;;;5017662;28;45758;-67
2024/01/30 03:05:47;;;;;;;1.87;1.87;;;17.40;68.80;;;;;;5014274;28;43357;-68
2024/01/30 03:08:15;;;;;;;1.80;1.80;;;17.30;68.80;;;;;;5015006;28;43423;-68
2024/01/30 03:10:43;;;;;;;1.60;1.60;;;17.30;68.80;;;;;;5008362;28;43587;-68
2024/01/30 03:13:12;;;;;;;1.83;1.83;;;17.30;68.70;;;;;;5008220;28;46070;-68
2024/01/30 03:15:41;;;;;;;1.63;1.63;;;17.30;68.80;;;;;;5011833;28;43456;-68
2024/01/30 03:18:09;;;;;;;1.50;1.50;;;17.30;68.80;;;;;;5017974;28;43384;-68
2024/01/30 03:20:37;;;;;;;1.60;1.60;;;17.30;68.90;;;;;;5009396;28;43577;-68
2024/01/30 03:23:05;;;;;;;1.63;1.63;;;17.30;69.00;;;;;;5016409;28;43608;-68
2024/01/30 03:25:33;;;;;;;1.67;1.67;;;17.30;69.10;;;;;;5009650;28;44816;-68
2024/01/30 03:28:01;;;;;;;1.70;1.70;;;17.40;69.00;;;;;;5011316;28;43404;-68
2024/01/30 03:30:30;;;;;;;1.67;1.67;;;17.40;68.70;;;;;;5011493;28;43407;-68
2024/01/30 03:32:58;;;;;;;1.60;1.60;;;17.40;68.50;;;;;;5016078;28;43608;-68
2024/01/30 03:35:27;;;;;;;1.53;1.53;;;17.40;68.60;;;;;;5011205;28;43474;-68
2024/01/30 03:37:55;;;;;;;1.80;1.80;;;17.40;68.60;;;;;;5009615;28;44412;-67
2024/01/30 03:40:23;;;;;;;1.87;1.77;;;17.40;68.80;;;;;;5011155;28;44144;-68
2024/01/30 03:42:51;;;;;;;1.73;1.73;;;17.30;68.70;;;;;;5007828;28;43705;-68
2024/01/30 03:45:19;;;;;;;1.57;1.57;;;17.40;68.80;;;;;;5017374;28;43442;-68
2024/01/30 03:47:49;;;;;;;1.60;1.60;;;17.40;68.80;;;;;;5012749;28;43836;-68
2024/01/30 03:50:17;;;;;;;1.60;1.60;;;17.30;68.70;;;;;;5014359;28;43346;-68
2024/01/30 03:52:45;;;;;;;1.80;1.80;;;17.30;68.80;;;;;;5015334;28;45663;-68
2024/01/30 03:55:13;;;;;;;1.70;1.70;;;17.30;68.90;;;;;;5012297;28;43425;-68
2024/01/30 03:57:41;;;;;;;1.80;1.70;;;17.30;69.00;;;;;;5007559;28;43480;-68
2024/01/30 04:00:10;;;;;;;1.50;1.50;;;17.40;69.00;;;;;;5018216;28;43438;-68
2024/01/30 04:02:41;;;;;;;1.70;1.70;;;17.40;68.70;;;;;;5009963;28;46009;-67
2024/01/30 04:05:10;;;;;;;1.60;1.60;;;17.40;68.50;;;;;;5009674;28;43508;-67
2024/01/30 04:07:39;;;;;;;1.60;1.60;;;17.40;68.50;;;;;;5015775;28;43404;-67
2024/01/30 04:10:08;;;;;;;1.70;1.70;;;17.40;68.50;;;;;;5011359;28;43452;-68
2024/01/30 04:12:37;;;;;;;1.50;1.50;;;17.40;68.80;;;;;;5010222;28;43663;-67
2024/01/30 04:15:06;;;;;;;1.70;1.60;;;17.40;68.70;;;;;;5015812;28;44956;-67
2024/01/30 04:17:34;;;;;;;1.80;1.80;;;17.40;68.70;;;;;;5015523;28;43475;-68
2024/01/30 04:20:02;;;;;;;1.73;1.73;;;17.40;68.80;;;;;;5010747;28;43396;-67
2024/01/30 04:22:31;;;;;;;1.60;1.60;;;17.30;68.70;;;;;;5009573;28;44111;-67
2024/01/30 04:24:59;;;;;;;1.50;1.50;;;17.30;68.80;;;;;;5013505;28;43375;-67
2024/01/30 04:27:28;;;;;;;1.40;1.40;;;17.30;68.90;;;;;;5012138;28;43559;-67
2024/01/30 04:29:56;;;;;;;1.53;1.53;;;17.30;69.00;;;;;;5009903;28;44013;-68
2024/01/30 04:32:24;;;;;;;1.73;1.73;;;17.30;68.90;;;;;;5011609;28;43608;-67
2024/01/30 04:34:52;;;;;;;1.57;1.57;;;17.30;68.90;;;;;;5013811;28;43411;-68
2024/01/30 04:37:20;;;;;;;1.50;1.50;;;17.30;68.90;;;;;;5016177;28;43435;-67
2024/01/30 04:39:49;;;;;;;1.60;1.60;;;17.30;68.90;;;;;;5008606;28;43427;-67
2024/01/30 04:42:18;;;;;;;1.53;1.53;;;17.30;69.00;;;;;;5016388;28;43612;-68
2024/01/30 04:44:45;;;;;;;1.60;1.60;;;17.30;69.10;;;;;;5011446;28;43409;-67
2024/01/30 04:47:13;;;;;;;1.60;1.60;;;17.30;69.00;;;;;;5014568;28;43360;-68
2024/01/30 04:49:42;;;;;;;1.47;1.47;;;17.40;68.70;;;;;;5010667;28;43790;-67
2024/01/30 04:52:10;;;;;;;1.60;1.60;;;17.50;68.50;;;;;;5012413;28;43617;-68
2024/01/30 04:54:38;;;;;;;1.63;1.63;;;17.50;68.50;;;;;;5011400;28;44268;-68
2024/01/30 04:57:11;;;;;;;1.80;1.80;;;17.40;68.50;;;;;;5013446;28;43404;-68
2024/01/30 04:59:39;;;;;;;1.60;1.60;;;17.40;68.60;;;;;;5011386;28;43404;-68
2024/01/30 05:02:07;;;;;;;1.43;1.43;;;17.40;68.60;;;;;;5017094;28;43606;-68
2024/01/30 05:04:36;;;;;;;1.60;1.60;;;17.40;68.60;;;;;;5009401;28;44769;-68
2024/01/30 05:07:07;;;;;;;1.57;1.57;;;17.40;68.70;;;;;;5011291;28;43402;-68
2024/01/30 05:09:35;;;;;;;1.70;1.70;;;17.40;68.80;;;;;;5007903;28;43458;-68
2024/01/30 05:12:04;;;;;;;1.57;1.57;;;17.40;68.90;;;;;;5010173;28;43707;-68
2024/01/30 05:14:33;;;;;;;1.60;1.60;;;17.30;68.80;;;;;;5008168;28;43812;-68
2024/01/30 05:17:02;;;;;;;1.60;1.60;;;17.40;69.10;;;;;;5011249;28;43472;-68
2024/01/30 05:19:30;;;;;;;1.73;1.73;;;17.40;68.80;;;;;;5014242;28;43477;-68
2024/01/30 05:21:59;;;;;;;1.60;1.60;;;17.40;68.50;;;;;;5006122;28;43580;-68
2024/01/30 05:24:27;;;;;;;1.57;1.57;;;17.40;68.50;;;;;;5013046;28;43480;-68
2024/01/30 05:26:55;;;;;;;1.50;1.50;;;17.40;68.60;;;;;;5009092;28;43424;-68
2024/01/30 05:29:23;;;;;;;1.63;1.63;;;17.40;68.70;;;;;;5009201;28;43360;-68
2024/01/30 05:31:52;;;;;;;1.60;1.60;;;17.40;68.80;;;;;;5014502;28;44001;-68
2024/01/30 05:34:20;;;;;;;1.47;1.47;;;17.40;68.70;;;;;;4982747;28;44078;-68
2024/01/30 05:36:48;;;;;;;1.70;1.70;;;17.40;68.70;;;;;;5015353;28;43463;-68
2024/01/30 05:39:16;;;;;;;1.40;1.40;;;17.40;68.70;;;;;;5012767;28;43404;-68
2024/01/30 05:41:44;;;;;;;1.63;1.63;;;17.40;68.80;;;;;;5020005;28;43604;-67
2024/01/30 05:44:12;;;;;;;1.60;1.60;;;17.40;68.90;;;;;;5013499;28;44363;-67
2024/01/30 05:46:40;;;;;;;1.60;1.60;;;17.30;68.90;;;;;;5016052;28;43473;-67
2024/01/30 05:49:10;;;;;;;1.23;1.23;;;17.40;69.00;;;;;;5017957;28;43520;-68
2024/01/30 05:51:38;;;;;;;1.50;1.50;;;17.40;68.70;;;;;;5014035;28;43588;-68
2024/01/30 05:54:06;;;;;;;1.53;1.50;;;17.50;68.50;;;;;;5015525;28;44026;-68
2024/01/30 05:56:34;;;;;;;1.77;1.77;;;17.50;68.30;;;;;;5016039;28;43450;-68
2024/01/30 05:59:02;;;;;;;1.70;1.70;;;17.50;68.30;;;;;;5014804;28;43689;-68
2024/01/30 06:01:30;;;;;;;1.53;1.53;;;17.50;68.50;;;;;;5017110;28;43765;-68
2024/01/30 06:03:58;;;;;;;1.60;1.60;;;17.40;68.50;;;;;;5015474;28;43462;-68
2024/01/30 06:06:27;;;;;;;1.50;1.50;;;17.40;68.40;;;;;;5019289;28;44006;-67
2024/01/30 06:08:56;;;;;;;1.50;1.50;;;17.40;68.50;;;;;;5010592;28;43582;-68
2024/01/30 06:11:24;;;;;;;1.33;1.33;;;17.40;68.50;;;;;;5013027;28;44081;-68
2024/01/30 06:13:52;;;;;;;1.37;1.37;;;17.40;68.60;;;;;;5016673;28;43963;-68
2024/01/30 06:16:21;;;;;;;1.50;1.50;;;17.40;68.80;;;;;;5010432;28;43396;-68
2024/01/30 06:18:49;;;;;;;1.33;1.33;;;17.30;68.80;;;;;;5008577;28;43894;-68
2024/01/30 06:21:17;;;;;;;1.30;1.30;;;17.30;68.70;;;;;;5001819;28;43950;-68
2024/01/30 06:23:47;;;;;;;1.70;1.70;;;17.40;68.80;;;;;;5007823;28;43838;-68
2024/01/30 06:26:15;;;;;;;1.50;1.50;;;17.30;68.80;;;;;;5002097;28;43505;-68
2024/01/30 06:28:44;;;;;;;1.40;1.40;;;17.30;68.80;;;;;;5008777;28;43385;-68
2024/01/30 06:31:12;;;;;;;1.70;1.70;;;17.30;68.80;;;;;;5005613;28;43792;-68
2024/01/30 06:33:42;;;;;;;1.70;1.70;;;17.30;69.00;;;;;;5004094;28;44083;-68
2024/01/30 06:36:10;;;;;;;1.50;1.50;;;17.30;69.00;;;;;;5002212;28;43381;-68
2024/01/30 06:38:38;;;;;;;1.67;1.67;;;17.50;68.80;;;;;;5001714;28;44025;-68
2024/01/30 06:41:07;;;;;;;1.63;1.63;;;17.50;68.50;;;;;;5003998;28;43890;-68
2024/01/30 06:43:35;;;;;;;1.40;1.40;;;17.50;68.30;;;;;;5002465;28;44240;-68
2024/01/30 06:46:03;;;;;;;1.53;1.53;;;17.50;68.30;;;;;;5004782;28;43523;-68
2024/01/30 06:48:31;;;;;;;1.47;1.47;;;17.50;68.50;;;;;;5004254;28;43463;-68
2024/01/30 06:50:59;;;;;;;1.50;1.50;;;17.40;68.50;;;;;;5002728;28;43617;-68
2024/01/30 06:53:27;;;;;;;1.70;1.70;;;17.40;68.50;;;;;;5000385;28;43507;-68
2024/01/30 06:55:55;;;;;;;1.40;1.40;;;17.40;68.50;;;;;;5012040;28;43436;-68
2024/01/30 06:58:24;;;;;;;1.50;1.50;;;17.40;68.60;;;;;;5000429;28;43330;-68
2024/01/30 07:00:52;;;;;;;1.40;1.40;;;17.40;68.70;;;;;;5001003;28;44227;-68
2024/01/30 07:03:21;;;;;;;1.50;1.40;;;17.30;68.70;;;;;;5002743;28;43577;-68
2024/01/30 07:05:49;;;;;;;1.40;1.40;;;17.30;68.70;;;;;;5003831;28;44070;-68
2024/01/30 07:08:18;;;;;;;1.30;1.30;;;17.30;68.70;;;;;;5004158;28;43552;-68
2024/01/30 07:10:46;;;;;;;1.70;1.70;;;17.30;68.70;;;;;;5003705;28;43893;-68
2024/01/30 07:13:16;;;;;;;1.60;1.60;;;17.30;68.70;;;;;;4999239;28;45659;-68
2024/01/30 07:15:46;;;;;;;1.70;1.70;;;17.30;68.80;;;;;;5002884;28;43416;-68
2024/01/30 07:18:14;;;;;;;1.37;1.37;;;17.30;68.90;;;;;;5011228;28;43491;-68
2024/01/30 07:20:46;;;;;;;1.70;1.70;;;17.30;69.00;;;;;;5009999;28;44784;-68
2024/01/30 07:23:15;;;;;;;1.60;1.60;;;17.30;68.80;;;;;;5009724;28;43441;-68
2024/01/30 07:25:44;;;;;;;1.57;1.57;;;17.30;68.80;;;;;;5010980;28;43514;-68
2024/01/30 07:28:16;;;;;;;1.70;1.70;;;17.30;68.80;;;;;;5011688;28;43360;-68
2024/01/30 07:30:47;;;;;;;1.50;1.50;;;17.30;68.80;;;;;;5015113;28;43869;-68
2024/01/30 07:33:15;;;;;;;1.50;1.50;;;17.30;68.80;;;;;;5016097;28;43442;-68
2024/01/30 07:35:46;;;;;;;1.60;1.60;;;17.30;69.00;;;;;;5016123;28;43951;-68
2024/01/30 07:38:14;;;;;;;1.50;1.50;;;17.40;68.90;;;;;;5015074;28;43350;-68
2024/01/30 07:40:42;;;;;;;1.60;1.60;;;17.50;68.70;;;;;;5009449;28;43959;-68
2024/01/30 07:43:11;;;;;;;1.50;1.50;;;17.50;68.30;;;;;;5011353;28;43424;-72
2024/01/30 07:45:39;;;;;;;1.50;1.50;;;17.50;68.20;;;;;;5010430;28;43395;-69
2024/01/30 07:48:08;;;;;;;1.50;1.50;;;17.50;68.20;;;;;;5012495;28;43480;-68
2024/01/30 07:50:36;;;;;;;1.60;1.60;;;17.50;68.50;;;;;;5014879;28;45354;-68
2024/01/30 07:53:05;;;;;;;1.60;1.60;;;17.50;68.50;;;;;;5012592;28;43432;-68
2024/01/30 07:55:33;;;;;;;1.60;1.60;;;17.40;68.40;;;;;;5012765;28;43441;-68
2024/01/30 07:58:01;;;;;;;1.53;1.53;;;17.40;68.50;;;;;;5011136;28;43455;-69
2024/01/30 08:00:29;;;;;;;1.80;1.80;;;17.40;68.50;;;;;;5012886;28;43769;-66
2024/01/30 08:02:58;;;;;;;1.70;1.70;;;17.40;68.60;;;;;;5039366;28;43403;-66
2024/01/30 08:05:28;;;;;;;1.70;1.70;;;17.30;68.70;;;;;;5034186;28;43440;-66
2024/01/30 08:07:56;;;;;;;1.70;1.70;;;17.30;68.70;;;;;;5038847;28;43501;-66
2024/01/30 08:10:24;;;;;;;1.60;1.60;;;17.30;68.70;;;;;;5033064;28;43941;-65
2024/01/30 08:12:52;;;;;;;1.60;1.60;;;17.30;68.70;;;;;;5034598;28;43483;-65
2024/01/30 08:15:20;;;;;;;1.53;1.53;;;17.30;68.70;;;;;;5033061;28;43883;-66
2024/01/30 08:17:49;;;;;;;1.60;1.60;;;17.30;68.80;;;;;;5037143;28;43436;-66
2024/01/30 08:20:17;;;;;;;1.53;1.53;;;17.30;68.90;;;;;;5034173;28;43925;-66
2024/01/30 08:22:47;;;;;;;1.50;1.50;;;17.30;69.00;;;;;;5032460;28;43445;-66
2024/01/30 08:25:15;;;;;;;1.70;1.70;;;17.30;68.80;;;;;;5032815;28;43495;-66
2024/01/30 08:27:43;;;;;;;1.63;1.63;;;17.40;68.50;;;;;;5032141;28;43396;-66
2024/01/30 08:30:12;;;;;;;1.60;1.60;;;17.50;68.30;;;;;;5034796;28;43830;-65
2024/01/30 08:32:40;;;;;;;1.43;1.43;;;17.50;68.30;;;;;;5031208;28;43424;-65
2024/01/30 08:35:08;;;;;;;1.80;1.80;;;17.50;68.40;;;;;;5024223;28;43460;-65
2024/01/30 08:37:37;;;;;;;7.63;1.83;;;17.40;68.50;;;;;;5022216;28;43460;-65
2024/01/30 08:40:08;;;;;;;1.70;1.70;;;17.40;68.40;;;;;;5022027;28;43577;-66
2024/01/30 08:42:36;;;;;;;1.70;1.70;;;17.40;68.50;;;;;;5021725;28;43428;-66
2024/01/30 08:45:05;;;;;;;1.60;1.60;;;17.40;68.50;;;;;;5022158;28;43403;-66
2024/01/30 08:47:33;;;;;;;1.90;1.80;;;17.40;68.60;;;;;;5023285;28;43420;-65
2024/01/30 08:50:02;;;;;;;2.23;1.83;;;17.30;68.60;;;;;;5020247;28;43846;-66
2024/01/30 08:52:30;;;;;;;1.93;1.73;;;17.30;68.70;;;;;;5022441;28;43453;-65
2024/01/30 08:54:58;;;;;;;1.73;1.73;;;17.30;68.70;;;;;;5023267;28;43472;-66
2024/01/30 08:57:29;;;;;;;1.70;1.60;;;17.30;68.70;;;;;;5019702;28;43429;-65
2024/01/30 08:59:57;;;;;;;1.47;1.47;;;17.30;68.70;;;;;;5021530;28;43700;-65
2024/01/30 09:02:25;;;;;;;1.70;1.60;;;17.30;68.80;;;;;;5018129;28;43435;-65
2024/01/30 09:04:53;;;;;;;2.13;2.00;;;17.30;68.80;;;;;;5023181;28;43495;-68
2024/01/30 09:07:21;;;;;;;1.93;1.90;;;17.30;68.90;;;;;;5019168;28;43583;-66
2024/01/30 09:09:50;;;;;;;1.80;1.80;;;17.30;69.00;;;;;;5023884;28;43613;-65
2024/01/30 09:12:18;;;;;;;1.70;1.70;;;17.40;68.80;;;;;;5011286;28;43918;-68
2024/01/30 09:14:47;;;;;;;3.03;1.60;;;17.40;68.50;;;;;;5004998;28;44038;-67
2024/01/30 09:17:15;;;;;;;1.80;1.70;;;17.40;68.50;;;;;;5003375;28;43812;-67
2024/01/30 09:19:43;;;;;;;2.10;1.90;;;17.40;68.50;;;;;;5008235;28;44075;-69
2024/01/30 09:22:11;;;;;;;1.70;1.70;;;17.40;68.50;;;;;;5008972;28;43404;-67
2024/01/30 09:24:39;;;;;;;1.70;1.60;;;17.40;68.70;;;;;;5011447;28;43559;-67
2024/01/30 09:27:07;;;;;;;1.60;1.60;;;17.40;68.70;;;;;;5017618;28;43511;-68
2024/01/30 09:29:36;;;;;;;1.70;1.70;;;17.40;69.40;;;;;;5009677;28;47239;-67
2024/01/30 09:32:08;;;;;;;1.70;1.70;;;17.30;68.60;;;;;;5011103;28;44946;-68
2024/01/30 09:34:37;;;;;;;1.60;1.60;;;17.30;68.70;;;;;;5010510;28;43441;-68
2024/01/30 09:37:05;;;;;;;1.90;1.90;;;17.30;68.80;;;;;;5013364;28;43446;-70
2024/01/30 09:39:33;;;;;;;1.57;1.57;;;17.30;68.90;;;;;;5009634;28;43625;-67
2024/01/30 09:42:03;;;;;;;1.57;1.57;;;17.30;68.90;;;;;;5013035;28;43511;-69
2024/01/30 09:44:31;;;;;;;1.83;1.73;;;17.30;68.90;;;;;;5013836;28;43396;-69
2024/01/30 09:47:03;;;;;;;1.83;1.83;;;17.30;68.90;;;;;;5012034;28;43466;-69
2024/01/30 09:49:32;;;;;;;1.80;1.70;;;17.30;68.90;;;;;;5008511;28;43917;-68
2024/01/30 09:52:02;;;;;;;1.73;1.73;;;17.30;69.00;;;;;;5011370;28;43500;-68
2024/01/30 09:54:31;;;;;;;1.73;1.73;;;17.30;69.00;;;;;;5012033;28;43294;-68
2024/01/30 09:57:02;;;;;;;1.70;1.70;;;17.30;69.10;;;;;;5010634;28;43425;-68
2024/01/30 09:59:30;;;;;;;1.73;1.73;;;17.30;68.80;;;;;;5016402;28;43679;-68
2024/01/30 10:01:58;;;;;;;1.80;1.77;;;17.50;68.60;;;;;;5010806;28;44700;-68
2024/01/30 10:04:26;;;;;;;1.90;1.80;;;17.50;68.30;;;;;;5012437;28;43388;-68
2024/01/30 10:06:56;;;;;;;1.87;1.87;;;17.50;68.20;;;;;;5012723;28;43512;-68
2024/01/30 10:09:25;;;;;;;1.83;1.83;;;17.50;68.30;;;;;;5010398;28;43672;-68
2024/01/30 10:11:53;;;;;;;2.80;2.60;;;17.50;68.50;;;;;;5007542;28;43459;-68
2024/01/30 10:14:21;;;;;;;1.73;1.73;;;17.40;68.30;;;;;;5009293;28;43823;-68
2024/01/30 10:16:49;;;;;;;1.97;1.87;;;17.40;68.40;;;;;;5007445;28;43981;-68
2024/01/30 10:19:17;;;;;;;1.70;1.70;;;17.40;68.50;;;;;;5011044;28;43945;-68
2024/01/30 10:21:45;;;;;;;1.83;1.73;;;17.40;68.60;;;;;;5012384;28;43330;-68
2024/01/30 10:24:15;;;;;;;1.80;1.80;;;17.30;68.60;;;;;;5016787;28;43479;-68
2024/01/30 10:26:44;;;;;;;2.10;2.00;;;17.30;68.80;;;;;;5014528;28;43540;-68
2024/01/30 10:29:12;;;;;;;2.10;2.00;;;17.30;68.70;;;;;;5010945;28;43692;-67
2024/01/30 10:31:40;;;;;;;1.90;1.90;;;17.30;68.70;;;;;;5017585;28;43515;-68
2024/01/30 10:34:09;;;;;;;1.70;1.70;;;17.30;68.70;;;;;;5013799;28;43384;-68
2024/01/30 10:36:51;;;;;;;1.80;1.80;;;17.30;68.70;;;;;;5006058;28;43407;-67
2024/01/30 10:39:20;;;;;;;2.60;2.10;;;17.30;68.80;;;;;;5021319;28;43951;-68
2024/01/30 10:41:49;;;;;;;1.60;1.60;;;17.20;69.00;;;;;;5014685;28;43432;-68
2024/01/30 10:44:19;;;;;;;1.97;1.87;;;17.30;68.80;;;;;;5006454;28;43354;-68
2024/01/30 10:46:48;;;;;;;2.03;2.00;;;17.30;68.80;;;;;;5019516;28;43432;-67
2024/01/30 10:49:16;;;;;;;1.60;1.60;;;17.30;68.90;;;;;;5007255;28;43659;-68
2024/01/30 10:51:44;;;;;;;1.70;1.60;;;17.20;68.80;;;;;;5021251;28;43512;-68
2024/01/30 10:54:12;;;;;;;1.90;1.90;;;17.20;68.90;;;;;;5018926;28;43333;-67
2024/01/30 10:56:42;;;;;;;2.00;1.90;;;17.20;69.00;;;;;;5015902;28;43412;-68
2024/01/30 10:59:10;;;;;;;1.90;1.80;;;17.30;69.10;;;;;;5015138;28;44137;-67
2024/01/30 11:01:39;;;;;;;2.30;2.10;;;17.40;68.90;;;;;;5011951;28;44758;-68
2024/01/30 11:04:07;;;;;;;1.97;1.90;;;17.40;68.50;;;;;;5013674;28;43420;-68
2024/01/30 11:06:43;;;;;;;2.20;2.00;;;17.50;68.40;;;;;;5015045;28;43875;-68
2024/01/30 11:09:12;;;;;;;1.90;1.80;;;17.50;68.40;;;;;;5012199;28;43757;-67
2024/01/30 11:11:52;;;;;;;2.00;2.00;;;17.40;68.50;;;;;;5012416;28;43945;-67
2024/01/30 11:14:30;;;;;;;1.77;1.77;;;17.40;68.60;;;;;;5014370;28;43433;-68
2024/01/30 11:16:58;;;;;;;2.03;1.93;;;17.40;68.80;;;;;;5015011;28;43411;-68
2024/01/30 11:19:27;;;;;;;1.80;1.80;;;17.40;68.90;;;;;;5015563;28;43604;-68
2024/01/30 11:21:56;;;;;;;1.80;1.80;;;17.30;68.90;;;;;;5013809;28;43406;-68
2024/01/30 11:24:26;;;;;;;2.20;2.00;;;17.30;69.00;;;;;;5017702;28;43463;-68
2024/01/30 11:26:58;;;;;;;1.80;1.80;;;17.30;69.10;;;;;;5012368;28;43468;-68
2024/01/30 11:29:26;;;;;;;1.80;1.80;;;17.30;69.10;;;;;;5004077;28;43624;-69
2024/01/30 11:31:55;;;;;;;1.90;1.90;;;17.30;69.20;;;;;;5018722;28;43385;-66
2024/01/30 11:34:23;;;;;;;2.10;2.10;;;17.40;69.30;;;;;;5040292;28;43390;-65
2024/01/30 11:36:55;;;;;;;2.00;2.00;;;17.40;69.10;;;;;;5024450;28;43436;-66
2024/01/30 11:39:23;;;;;;;2.00;2.00;;;17.50;68.80;;;;;;5031189;28;43725;-65
2024/01/30 11:41:52;;;;;;;2.00;2.00;;;17.70;69.20;;;;;;5027358;28;43356;-66
2024/01/30 11:44:21;;;;;;;1.80;1.80;;;17.80;68.10;;;;;;5028345;28;44100;-66
2024/01/30 11:46:49;;;;;;;2.00;2.00;;;18.00;67.60;;;;;;5034386;28;43409;-66
2024/01/30 11:49:17;;;;;;;1.80;1.80;;;18.20;67.30;;;;;;5034891;28;43600;-66
2024/01/30 11:51:48;;;;;;;1.90;1.90;;;18.30;66.90;;;;;;5032785;28;43454;-65
2024/01/30 11:54:16;;;;;;;2.40;2.30;;;18.40;66.70;;;;;;5031451;28;43462;-65
2024/01/30 11:56:44;;;;;;;2.30;2.20;;;18.50;66.30;;;;;;5031625;28;43385;-65
2024/01/30 11:59:14;;;;;;;2.10;2.10;;;18.60;66.10;;;;;;5028935;28;44783;-65
2024/01/30 12:01:44;;;;;;;1.93;1.93;;;18.60;65.90;;;;;;5033065;28;43423;-65
2024/01/30 12:04:12;;;;;;;2.17;2.13;;;18.60;65.90;;;;;;5033735;28;43440;-66
2024/01/30 12:06:40;;;;;;;2.20;2.10;;;18.50;66.10;;;;;;5034242;28;43587;-66
2024/01/30 12:09:08;;;;;;;2.20;2.10;;;18.30;66.40;;;;;;5028055;28;43663;-65
2024/01/30 12:11:45;;;;;;;2.60;2.50;;;18.20;66.80;;;;;;5026715;28;43392;-67
2024/01/30 12:14:15;;;;;;;2.60;2.40;;;18.10;67.40;;;;;;5033605;28;43404;-65
2024/01/30 12:16:44;;;;;;;2.70;2.50;;;18.00;67.50;;;;;;5034891;28;43412;-66
2024/01/30 12:19:12;;;;;;;2.37;2.37;;;17.90;67.60;;;;;;5027225;28;43609;-66
2024/01/30 12:21:41;;;;;;;2.43;2.33;;;17.90;67.90;;;;;;5021057;28;44390;-65
2024/01/30 12:24:11;;;;;;;2.37;2.37;;;17.80;68.10;;;;;;5024976;28;43353;-65
2024/01/30 12:26:39;;;;;;;2.40;2.30;;;17.70;68.40;;;;;;5030819;28;43409;-66
2024/01/30 12:29:07;;;;;;;2.70;2.50;;;17.70;68.80;;;;;;5032374;28;43761;-65
2024/01/30 12:31:36;;;;;;;2.70;2.60;;;17.70;68.70;;;;;;5031111;28;43891;-66
2024/01/30 12:34:05;;;;;;;3.00;2.80;;;17.70;68.80;;;;;;5029781;28;43409;-65
2024/01/30 12:36:33;;;;;;;2.57;2.47;;;17.60;68.90;;;;;;5033030;28;43480;-65
2024/01/30 12:39:02;;;;;;;2.77;2.67;;;17.60;69.00;;;;;;5029239;28;43574;-65
2024/01/30 12:41:30;;;;;;;2.53;2.43;;;17.50;69.30;;;;;;5021604;28;43371;-67
2024/01/30 12:43:58;;;;;;;2.93;2.83;;;17.60;69.70;;;;;;5010963;28;43493;-67
2024/01/30 12:46:29;;;;;;;2.83;2.63;;;17.60;69.40;;;;;;5015226;28;43439;-68
2024/01/30 12:48:57;;;;;;;3.10;2.90;;;17.70;69.10;;;;;;5008181;28;43899;-68
2024/01/30 12:51:27;;;;;;;2.60;2.50;;;17.70;68.90;;;;;;5008273;28;46117;-67
2024/01/30 12:53:55;;;;;;;2.97;2.87;;;17.70;68.80;;;;;;5013258;28;43424;-67